Time;durP1;ratioP1;P1;durP2;ratioP2;P2;SDS_P1;SDS_P2;PMS_P1;PMS_P2;Temp;Humidity;BMP_temperature;BMP_pressure;BME280_temperature;BME280_humidity;BME280_pressure;Samples;Min_cycle;Max_cycle;Signal;HPM_P1;HPM_P2
2022/06/05 00:01:51;;;;;;;24.80;8.88;;;22.40;99.90;;;;;;4973415;28;20031;-70
2022/06/05 00:04:38;;;;;;;22.33;9.07;;;22.40;99.90;;;;;;4973062;28;20078;-70
2022/06/05 00:07:38;;;;;;;18.80;8.43;;;22.30;99.90;;;;;;4960261;28;20049;-71
2022/06/05 00:10:21;;;;;;;17.00;8.55;;;22.30;99.90;;;;;;4973761;28;20034;-70
2022/06/05 00:12:46;;;;;;;;;;;22.30;99.90;;;;;;4973409;28;20038;-70
2022/06/05 00:15:12;;;;;;;15.00;8.13;;;22.20;99.90;;;;;;4972916;28;19968;-70
2022/06/05 00:17:38;;;;;;;16.95;7.70;;;22.20;99.90;;;;;;4973418;28;20620;-69
2022/06/05 00:20:06;;;;;;;15.75;8.15;;;22.10;99.90;;;;;;4973282;28;20026;-68
2022/06/05 00:22:32;;;;;;;16.75;7.30;;;22.00;99.90;;;;;;4973446;28;20485;-70
2022/06/05 00:24:57;;;;;;;15.20;8.63;;;22.00;99.90;;;;;;4972918;28;20033;-68
2022/06/05 00:27:33;;;;;;;15.23;7.88;;;22.00;99.90;;;;;;4973129;28;20477;-70
2022/06/05 00:30:14;;;;;;;19.08;8.80;;;22.00;99.90;;;;;;4972967;28;20171;-70
2022/06/05 00:32:51;;;;;;;15.23;8.02;;;22.00;99.90;;;;;;4973244;28;20023;-70
2022/06/05 00:35:21;;;;;;;16.30;8.25;;;21.90;99.90;;;;;;4973275;28;20038;-70
2022/06/05 00:37:55;;;;;;;14.57;7.15;;;21.90;99.90;;;;;;4987684;28;20031;-70
2022/06/05 00:40:33;;;;;;;13.40;7.50;;;21.90;99.90;;;;;;4973260;28;20042;-69
2022/06/05 00:43:01;;;;;;;13.70;8.35;;;21.80;99.90;;;;;;4972596;28;20142;-70
2022/06/05 00:45:29;;;;;;;12.75;7.43;;;21.80;99.90;;;;;;4972540;28;20110;-69
2022/06/05 00:47:55;;;;;;;14.57;7.50;;;;;;;;;;4972796;28;20034;-70
2022/06/05 00:50:24;;;;;;;17.08;8.55;;;21.90;99.90;;;;;;4972933;28;20034;-69
2022/06/05 00:52:55;;;;;;;21.40;7.95;;;21.80;99.90;;;;;;4972882;28;20137;-70
2022/06/05 00:55:23;;;;;;;16.48;8.85;;;21.80;99.90;;;;;;4972287;28;20053;-66
2022/06/05 00:57:49;;;;;;;15.40;9.07;;;21.90;99.90;;;;;;4972512;28;20037;-70
2022/06/05 01:00:23;;;;;;;14.52;8.20;;;21.90;99.90;;;;;;4972894;28;20050;-69
2022/06/05 01:02:52;;;;;;;15.63;8.82;;;21.90;99.90;;;;;;4972690;28;20074;-70
2022/06/05 01:05:20;;;;;;;15.43;8.50;;;21.90;99.90;;;;;;4972530;28;20029;-69
2022/06/05 01:07:46;;;;;;;16.95;8.50;;;21.90;99.90;;;;;;4972607;28;20027;-63
2022/06/05 01:10:14;;;;;;;15.35;8.50;;;21.80;99.90;;;;;;4973735;28;20045;-64
2022/06/05 01:13:04;;;;;;;17.02;8.23;;;21.80;99.90;;;;;;4978874;28;20027;-69
2022/06/05 01:15:37;;;;;;;15.27;8.35;;;21.80;99.90;;;;;;4966370;28;20039;-70
2022/06/05 01:18:22;;;;;;;15.38;8.45;;;21.80;99.90;;;;;;4979122;28;20055;-68
2022/06/05 01:21:00;;;;;;;16.88;8.18;;;21.80;99.90;;;;;;4979348;28;20031;-64
2022/06/05 01:23:32;;;;;;;16.25;8.32;;;21.70;99.90;;;;;;4978658;28;20374;-69
2022/06/05 01:26:23;;;;;;;16.70;9.15;;;21.80;99.90;;;;;;4978928;28;20489;-65
2022/06/05 01:29:01;;;;;;;13.80;7.63;;;21.80;99.90;;;;;;4978957;28;20049;-65
2022/06/05 01:31:44;;;;;;;15.73;8.25;;;21.70;99.90;;;;;;4978732;28;20078;-70
2022/06/05 01:34:24;;;;;;;17.58;8.75;;;21.70;99.90;;;;;;4978525;28;20473;-68
2022/06/05 01:37:12;;;;;;;11.98;7.13;;;21.60;99.90;;;;;;4978539;28;20042;-70
2022/06/05 01:40:02;;;;;;;13.13;7.80;;;21.50;99.90;;;;;;4978632;28;20041;-67
2022/06/05 01:42:45;;;;;;;16.25;8.60;;;21.50;99.90;;;;;;4978250;28;20031;-68
2022/06/05 01:45:18;;;;;;;11.07;7.13;;;21.50;99.90;;;;;;4978206;28;20422;-70
2022/06/05 01:47:51;;;;;;;18.17;7.38;;;21.40;99.90;;;;;;4978929;28;20050;-67
2022/06/05 01:50:25;;;;;;;15.07;8.13;;;21.40;99.90;;;;;;4978737;28;20059;-70
2022/06/05 01:53:19;;;;;;;17.08;8.85;;;21.30;99.90;;;;;;4978386;28;20035;-70
2022/06/05 01:56:00;;;;;;;17.08;7.90;;;21.20;99.90;;;;;;4978660;28;20038;-70
2022/06/05 01:58:40;;;;;;;10.83;7.03;;;21.20;99.90;;;;;;4978571;28;20062;-70
2022/06/05 02:01:19;;;;;;;20.15;7.97;;;21.20;99.90;;;;;;4978704;28;20616;-69
2022/06/05 02:04:07;;;;;;;14.50;8.13;;;21.20;99.90;;;;;;4979390;28;20142;-70
2022/06/05 02:06:38;;;;;;;16.67;8.13;;;21.10;99.90;;;;;;4971560;28;20057;-69
2022/06/05 02:09:22;;;;;;;14.18;8.43;;;21.00;99.90;;;;;;4978318;28;20033;-68
2022/06/05 02:11:49;;;;;;;15.38;8.02;;;20.90;99.90;;;;;;4978418;28;20026;-70
2022/06/05 02:14:15;;;;;;;12.77;7.82;;;21.00;99.90;;;;;;4978425;28;20043;-70
2022/06/05 02:16:43;;;;;;;17.73;7.97;;;20.90;99.90;;;;;;4978321;28;20245;-67
2022/06/05 02:19:13;;;;;;;17.23;7.28;;;20.90;99.90;;;;;;4979095;28;20030;-70
2022/06/05 02:21:40;;;;;;;13.40;7.05;;;20.90;99.90;;;;;;4977076;28;20117;-69
2022/06/05 02:24:08;;;;;;;12.45;7.07;;;20.90;99.90;;;;;;4975003;28;20022;-70
2022/06/05 02:26:34;;;;;;;11.70;7.20;;;20.80;99.90;;;;;;4975324;28;20041;-72
2022/06/05 02:29:16;;;;;;;14.18;8.07;;;20.80;99.90;;;;;;4975250;28;20102;-67
2022/06/05 02:31:42;;;;;;;;;;;20.70;99.90;;;;;;4976183;28;20031;-69
2022/06/05 02:34:11;;;;;;;19.20;7.53;;;;;;;;;;4975220;28;20380;-69
2022/06/05 02:36:52;;;;;;;13.85;8.25;;;20.70;99.90;;;;;;4975349;28;20122;-70
2022/06/05 02:39:30;;;;;;;15.35;7.53;;;20.60;99.90;;;;;;4975065;28;20018;-68
2022/06/05 02:42:15;;;;;;;15.13;8.40;;;20.60;99.90;;;;;;4989988;28;20043;-70
2022/06/05 02:44:59;;;;;;;14.15;8.75;;;20.50;99.90;;;;;;4968095;28;20173;-68
2022/06/05 02:47:33;;;;;;;14.68;7.75;;;20.50;99.90;;;;;;4971501;28;20030;-70
2022/06/05 02:50:34;;;;;;;18.75;8.07;;;20.60;99.90;;;;;;4962294;28;20025;-70
2022/06/05 02:53:03;;;;;;;12.57;8.07;;;20.60;99.90;;;;;;4974548;28;20029;-70
2022/06/05 02:55:29;;;;;;;13.63;8.15;;;20.60;99.90;;;;;;4974979;28;20039;-69
2022/06/05 02:57:56;;;;;;;18.95;7.47;;;20.70;99.90;;;;;;4974765;28;20366;-67
2022/06/05 03:00:25;;;;;;;15.73;7.88;;;20.70;99.90;;;;;;4974631;28;20117;-70
2022/06/05 03:05:36;;;;;;;11.90;8.25;;;20.80;99.90;;;;;;4984342;28;20035;-67
2022/06/05 03:08:03;;;;;;;11.88;6.97;;;20.80;99.90;;;;;;4974763;28;20026;-68
2022/06/05 03:10:29;;;;;;;11.75;7.10;;;20.80;99.90;;;;;;4974483;28;20113;-70
2022/06/05 03:12:55;;;;;;;14.30;7.32;;;20.90;99.90;;;;;;4974814;28;20520;-69
2022/06/05 03:15:21;;;;;;;14.70;7.85;;;20.80;99.90;;;;;;4974271;28;20057;-67
2022/06/05 03:17:47;;;;;;;11.90;6.72;;;20.90;99.90;;;;;;4974753;28;20027;-70
2022/06/05 03:20:15;;;;;;;20.52;8.48;;;21.00;99.90;;;;;;4973907;28;20461;-70
2022/06/05 03:22:41;;;;;;;15.77;7.53;;;21.00;99.90;;;;;;4973668;28;20567;-70
2022/06/05 03:25:09;;;;;;;12.40;6.60;;;21.10;99.90;;;;;;4973787;28;20034;-70
2022/06/05 03:27:34;;;;;;;12.65;7.53;;;21.20;99.90;;;;;;4974054;28;20019;-70
2022/06/05 03:30:01;;;;;;;18.95;7.63;;;21.20;99.90;;;;;;4974057;28;20035;-70
2022/06/05 03:32:30;;;;;;;11.65;6.57;;;21.20;99.90;;;;;;4973133;28;20027;-71
2022/06/05 03:34:56;;;;;;;11.38;6.20;;;21.30;99.90;;;;;;4973636;28;20031;-70
2022/06/05 03:37:22;;;;;;;15.25;7.80;;;21.50;99.90;;;;;;4973649;28;20070;-70
2022/06/05 03:39:48;;;;;;;13.85;7.40;;;21.60;99.90;;;;;;4973972;28;20055;-71
2022/06/05 03:42:14;;;;;;;11.88;6.90;;;21.60;99.90;;;;;;4973028;28;20100;-70
2022/06/05 03:44:42;;;;;;;13.20;7.07;;;21.90;99.90;;;;;;4980205;28;20054;-70
2022/06/05 03:47:09;;;;;;;18.80;7.90;;;22.30;99.90;;;;;;4973446;28;20166;-70
2022/06/05 03:49:36;;;;;;;16.77;6.82;;;23.00;99.90;;;;;;4973301;28;20110;-67
2022/06/05 03:52:04;;;;;;;14.27;6.45;;;23.80;99.90;;;;;;4973474;28;20046;-68
2022/06/05 03:54:31;;;;;;;14.10;6.72;;;24.60;99.90;;;;;;4972284;28;20363;-70
2022/06/05 03:56:57;;;;;;;11.43;5.93;;;25.40;99.90;;;;;;4973033;28;20031;-69
2022/06/05 03:59:23;;;;;;;12.77;6.47;;;26.00;99.90;;;;;;4973058;28;20106;-69
2022/06/05 04:01:49;;;;;;;15.98;6.75;;;26.40;99.90;;;;;;4973535;28;20050;-68
2022/06/05 04:04:15;;;;;;;11.02;6.80;;;26.50;99.90;;;;;;4973327;28;20097;-70
2022/06/05 04:06:40;;;;;;;11.52;6.93;;;26.60;99.90;;;;;;4973252;28;20038;-70
2022/06/05 04:09:08;;;;;;;17.33;7.18;;;27.50;99.90;;;;;;4973165;28;20524;-70
2022/06/05 04:11:37;;;;;;;13.23;7.35;;;28.10;99.90;;;;;;4972549;28;20027;-70
2022/06/05 04:14:04;;;;;;;14.07;6.70;;;28.30;99.90;;;;;;4973209;28;20056;-70
2022/06/05 04:16:31;;;;;;;18.17;8.32;;;29.00;99.90;;;;;;4972667;28;20034;-70
2022/06/05 04:18:58;;;;;;;13.38;8.40;;;29.70;98.70;;;;;;4973373;28;20031;-71
2022/06/05 04:21:28;;;;;;;16.13;7.70;;;30.30;95.80;;;;;;4972823;28;20557;-70
2022/06/05 04:23:55;;;;;;;16.27;7.60;;;30.20;96.00;;;;;;4972843;28;20027;-71
2022/06/05 04:26:23;;;;;;;12.68;7.28;;;30.80;94.50;;;;;;4972648;28;20023;-69
2022/06/05 04:28:49;;;;;;;17.10;8.50;;;31.10;93.80;;;;;;4972632;28;20023;-69
2022/06/05 04:31:25;;;;;;;16.33;6.68;;;31.60;91.30;;;;;;4972600;28;20095;-70
2022/06/05 04:33:53;;;;;;;20.42;9.10;;;32.20;88.40;;;;;;4972154;28;20038;-69
2022/06/05 04:36:19;;;;;;;29.80;16.42;;;32.40;86.90;;;;;;4972764;28;20031;-70
2022/06/05 04:38:46;;;;;;;26.70;14.77;;;32.70;82.90;;;;;;4972292;28;20027;-72
2022/06/05 04:41:12;;;;;;;21.67;12.02;;;32.80;81.70;;;;;;4972844;28;20030;-69
2022/06/05 04:43:38;;;;;;;16.42;8.65;;;33.10;80.20;;;;;;4971972;28;20042;-72
2022/06/05 04:46:05;;;;;;;17.20;7.70;;;33.40;80.10;;;;;;4971843;28;20049;-70
2022/06/05 04:48:31;;;;;;;12.20;6.53;;;33.60;78.40;;;;;;4972951;28;20027;-71
2022/06/05 04:50:58;;;;;;;16.50;6.43;;;33.50;77.90;;;;;;4972293;28;20026;-70
2022/06/05 04:53:24;;;;;;;17.73;9.38;;;33.70;78.10;;;;;;4972340;28;20066;-72
2022/06/05 04:55:50;;;;;;;17.80;8.65;;;33.40;78.60;;;;;;4972387;28;20042;-71
2022/06/05 04:58:16;;;;;;;13.02;7.13;;;31.90;80.70;;;;;;4972405;28;20480;-71
2022/06/05 05:00:42;;;;;;;15.93;7.80;;;31.40;84.30;;;;;;4972135;28;20114;-67
2022/06/05 05:03:08;;;;;;;19.35;8.75;;;30.90;89.50;;;;;;4972403;28;20026;-70
2022/06/05 05:05:34;;;;;;;21.92;9.25;;;30.70;90.40;;;;;;4972264;28;21280;-70
2022/06/05 05:08:00;;;;;;;14.30;6.72;;;30.20;92.20;;;;;;4971964;28;20027;-71
2022/06/05 05:10:26;;;;;;;14.23;6.78;;;28.70;98.90;;;;;;4971881;28;20714;-67
2022/06/05 05:12:52;;;;;;;13.95;6.82;;;27.70;99.90;;;;;;4972282;28;20042;-67
2022/06/05 05:15:18;;;;;;;17.90;7.53;;;27.10;99.90;;;;;;4971697;28;20543;-71
2022/06/05 05:17:44;;;;;;;12.25;7.30;;;27.10;99.90;;;;;;4971583;28;20031;-69
2022/06/05 05:20:11;;;;;;;13.82;8.05;;;27.10;99.90;;;;;;4971736;28;20026;-70
2022/06/05 05:22:39;;;;;;;16.75;9.68;;;27.00;99.90;;;;;;4971864;28;20801;-70
2022/06/05 05:25:08;;;;;;;18.05;11.70;;;26.60;99.90;;;;;;4971707;28;20469;-69
2022/06/05 05:27:35;;;;;;;22.77;14.38;;;26.80;99.90;;;;;;4972017;28;20465;-70
2022/06/05 05:30:03;;;;;;;23.38;13.75;;;26.70;99.90;;;;;;4971798;28;20113;-71
2022/06/05 05:32:29;;;;;;;20.40;14.40;;;26.40;99.90;;;;;;4971955;28;20027;-69
2022/06/05 05:34:54;;;;;;;19.38;12.60;;;26.20;99.90;;;;;;4971548;28;20026;-70
2022/06/05 05:37:20;;;;;;;21.08;11.25;;;26.70;99.90;;;;;;4967865;28;20446;-70
2022/06/05 05:42:30;;;;;;;17.58;10.15;;;26.90;99.90;;;;;;4960165;28;20038;-69
2022/06/05 05:44:57;;;;;;;17.00;10.18;;;27.10;99.90;;;;;;4971694;28;20094;-67
2022/06/05 05:47:31;;;;;;;19.00;10.55;;;26.50;99.90;;;;;;4971703;28;20027;-69
2022/06/05 05:50:03;;;;;;;15.93;8.75;;;26.70;99.90;;;;;;4972109;28;20114;-71
2022/06/05 05:52:31;;;;;;;14.77;9.07;;;27.10;99.90;;;;;;4970085;28;20121;-67
2022/06/05 05:54:57;;;;;;;25.08;14.75;;;27.00;99.90;;;;;;4971672;28;20031;-68
2022/06/05 05:57:23;;;;;;;22.20;13.00;;;26.60;99.90;;;;;;4965198;28;20097;-68
2022/06/05 05:59:49;;;;;;;14.52;7.38;;;26.70;99.90;;;;;;4975521;28;20465;-68
2022/06/05 06:02:21;;;;;;;13.55;7.47;;;26.80;99.90;;;;;;4975422;28;20035;-68
2022/06/05 06:04:48;;;;;;;12.18;5.75;;;26.50;99.90;;;;;;4975145;28;20034;-68
2022/06/05 06:07:14;;;;;;;15.15;6.55;;;26.60;99.90;;;;;;4975509;28;20023;-68
2022/06/05 06:09:41;;;;;;;15.82;6.40;;;26.50;99.90;;;;;;4974682;28;20027;-69
2022/06/05 06:12:08;;;;;;;14.40;6.78;;;27.00;99.90;;;;;;4975316;28;20070;-69
2022/06/05 06:14:34;;;;;;;9.82;5.00;;;27.10;99.90;;;;;;4967368;28;20487;-67
2022/06/05 06:17:00;;;;;;;13.25;5.82;;;27.30;99.90;;;;;;4975564;28;20034;-69
2022/06/05 06:19:26;;;;;;;10.18;6.07;;;27.40;99.90;;;;;;4974922;28;20478;-67
2022/06/05 06:21:52;;;;;;;10.95;5.80;;;26.80;99.90;;;;;;4973501;28;20027;-68
2022/06/05 06:24:19;;;;;;;10.65;5.82;;;26.80;99.90;;;;;;4974610;28;20030;-69
2022/06/05 06:26:45;;;;;;;13.27;6.68;;;27.10;99.90;;;;;;4967006;28;20030;-69
2022/06/05 06:29:11;;;;;;;12.57;7.10;;;26.70;99.90;;;;;;4975030;28;20061;-67
2022/06/05 06:31:39;;;;;;;11.10;6.32;;;26.30;99.90;;;;;;4974935;28;20023;-66
2022/06/05 06:34:05;;;;;;;9.80;6.25;;;26.90;99.90;;;;;;4974806;28;20057;-69
2022/06/05 06:36:32;;;;;;;7.88;5.60;;;26.70;99.90;;;;;;4973599;28;20408;-69
2022/06/05 06:38:59;;;;;;;12.80;6.30;;;27.10;99.90;;;;;;4974575;28;20478;-70
2022/06/05 06:41:25;;;;;;;14.90;6.35;;;27.50;99.90;;;;;;4974938;28;20500;-69
2022/06/05 06:43:51;;;;;;;12.95;7.10;;;27.70;99.90;;;;;;4967918;28;20051;-69
2022/06/05 06:46:19;;;;;;;11.77;6.93;;;28.10;99.90;;;;;;4973590;28;20039;-69
2022/06/05 06:48:45;;;;;;;13.40;6.68;;;27.80;99.90;;;;;;4974648;28;20548;-69
2022/06/05 06:51:12;;;;;;;12.63;6.78;;;27.40;99.90;;;;;;4974000;28;20102;-69
2022/06/05 06:53:39;;;;;;;11.07;6.35;;;27.60;99.90;;;;;;4974272;28;20033;-66
2022/06/05 06:56:12;;;;;;;9.15;5.75;;;28.10;99.90;;;;;;4974518;28;20429;-68
2022/06/05 06:58:40;;;;;;;15.55;6.72;;;28.00;99.90;;;;;;4973961;28;20034;-67
2022/06/05 07:01:06;;;;;;;10.13;5.57;;;28.00;99.90;;;;;;4974342;28;20030;-70
2022/06/05 07:03:34;;;;;;;15.30;6.43;;;28.50;99.90;;;;;;4966388;28;20034;-69
2022/06/05 07:06:06;;;;;;;9.05;6.30;;;28.40;99.90;;;;;;4972400;28;20058;-70
2022/06/05 07:08:33;;;;;;;7.70;5.38;;;28.30;99.90;;;;;;4972182;28;20528;-69
2022/06/05 07:10:59;;;;;;;8.82;5.82;;;28.40;99.90;;;;;;4973123;28;20063;-72
2022/06/05 07:13:25;;;;;;;10.73;5.60;;;28.60;99.90;;;;;;4973111;28;20106;-70
2022/06/05 07:15:51;;;;;;;7.05;5.53;;;28.20;99.90;;;;;;4971479;28;20050;-69
2022/06/05 07:18:18;;;;;;;10.45;5.95;;;28.60;99.90;;;;;;4973962;28;20469;-70
2022/06/05 07:20:45;;;;;;;7.80;5.00;;;28.90;99.90;;;;;;4973338;28;20366;-70
2022/06/05 07:23:12;;;;;;;6.55;4.80;;;28.70;99.60;;;;;;4973146;28;20035;-68
2022/06/05 07:25:44;;;;;;;9.32;5.15;;;28.90;99.80;;;;;;4973042;28;20031;-68
2022/06/05 07:28:10;;;;;;;;;;;29.30;99.90;;;;;;4957185;28;20086;-69
2022/06/05 07:30:35;;;;;;;8.02;3.95;;;29.70;94.70;;;;;;4971868;28;19906;-68
2022/06/05 07:33:01;;;;;;;7.57;4.40;;;29.70;93.40;;;;;;4973082;28;20054;-67
2022/06/05 07:35:27;;;;;;;8.43;3.80;;;29.90;94.10;;;;;;4970073;28;20371;-72
2022/06/05 07:37:53;;;;;;;6.82;4.40;;;29.60;91.80;;;;;;4971553;28;20425;-70
2022/06/05 07:40:19;;;;;;;9.43;4.68;;;30.00;92.60;;;;;;4973398;28;20061;-70
2022/06/05 07:42:45;;;;;;;9.15;4.05;;;30.10;93.50;;;;;;4973059;28;20069;-70
2022/06/05 07:45:14;;;;;;;6.00;3.45;;;29.90;91.20;;;;;;4973164;28;20493;-70
2022/06/05 07:47:42;;;;;;;8.38;4.25;;;29.60;87.50;;;;;;4973722;28;20057;-70
2022/06/05 07:50:08;;;;;;;5.85;4.22;;;30.30;95.60;;;;;;4973666;28;20030;-69
2022/06/05 07:55:18;;;;;;;7.07;4.40;;;30.90;90.60;;;;;;4973346;28;20033;-71
2022/06/05 07:57:45;;;;;;;7.38;4.65;;;30.60;89.30;;;;;;4973565;28;20023;-71
2022/06/05 08:00:11;;;;;;;8.45;4.50;;;30.80;88.70;;;;;;4973210;28;20035;-71
2022/06/05 08:02:38;;;;;;;9.20;4.57;;;30.90;89.00;;;;;;4973628;28;20445;-69
2022/06/05 08:05:05;;;;;;;13.43;4.65;;;30.30;91.90;;;;;;4973049;28;20119;-69
2022/06/05 08:07:32;;;;;;;6.65;4.35;;;30.50;92.40;;;;;;4972837;28;20034;-70
2022/06/05 08:10:00;;;;;;;8.45;3.92;;;30.90;89.70;;;;;;4973638;28;20042;-70
2022/06/05 08:12:30;;;;;;;4.55;3.03;;;31.10;81.90;;;;;;4984735;28;20473;-64
2022/06/05 08:14:56;;;;;;;6.40;3.95;;;31.40;86.20;;;;;;4971990;28;20167;-70
2022/06/05 08:17:25;;;;;;;5.20;3.65;;;31.60;84.00;;;;;;4972132;28;20035;-71
2022/06/05 08:19:51;;;;;;;6.25;4.03;;;31.50;81.80;;;;;;4971362;28;20050;-69
2022/06/05 08:22:19;;;;;;;6.57;3.47;;;31.60;83.20;;;;;;4971847;28;20023;-69
2022/06/05 08:24:45;;;;;;;5.60;3.67;;;31.90;81.80;;;;;;4972148;28;20544;-70
2022/06/05 08:27:15;;;;;;;8.30;3.28;;;31.60;78.50;;;;;;4972514;28;20037;-68
2022/06/05 08:29:41;;;;;;;3.95;2.65;;;31.40;77.90;;;;;;4972118;28;20057;-69
2022/06/05 08:32:07;;;;;;;8.98;3.63;;;30.60;78.30;;;;;;4972766;28;20031;-69
2022/06/05 08:34:33;;;;;;;5.63;3.38;;;31.20;79.20;;;;;;4971775;28;20031;-69
2022/06/05 08:43:09;;;;;;;9.13;3.58;;;30.30;78.40;;;;;;4971032;28;20034;-71
2022/06/05 08:45:40;;;;;;;6.00;3.30;;;30.80;78.50;;;;;;4967905;28;20062;-71
2022/06/05 08:48:11;;;;;;;;;;;31.60;81.40;;;;;;4970582;28;20029;-71
2022/06/05 08:50:48;;;;;;;6.10;3.88;;;31.90;78.20;;;;;;4971550;28;20321;-71
2022/06/05 08:53:28;;;;;;;4.95;3.35;;;32.00;76.50;;;;;;4971005;28;20525;-72
2022/06/05 08:55:55;;;;;;;6.32;3.10;;;31.10;75.70;;;;;;4971760;28;20389;-71
2022/06/05 08:58:46;;;;;;;4.95;2.97;;;31.60;73.70;;;;;;4971528;28;20065;-72
2022/06/05 09:01:41;;;;;;;3.28;1.88;;;31.70;72.40;;;;;;4971936;28;20035;-69
2022/06/05 09:04:28;;;;;;;3.33;1.70;;;31.90;69.50;;;;;;4971853;28;20058;-69
2022/06/05 09:06:59;;;;;;;3.90;2.20;;;32.30;67.20;;;;;;4959009;28;20023;-70
2022/06/05 09:09:40;;;;;;;2.63;1.80;;;32.60;64.80;;;;;;4971905;28;20023;-70
2022/06/05 09:12:18;;;;;;;3.67;1.98;;;32.60;60.70;;;;;;4972300;28;20038;-71
2022/06/05 09:15:02;;;;;;;4.40;2.13;;;32.50;64.30;;;;;;4971888;28;20034;-70
2022/06/05 09:17:28;;;;;;;5.55;2.40;;;32.70;63.20;;;;;;4959149;28;20385;-67
2022/06/05 09:19:57;;;;;;;9.00;3.95;;;32.50;65.80;;;;;;4972146;28;20381;-70
2022/06/05 09:22:32;;;;;;;3.65;1.85;;;32.80;68.80;;;;;;4971414;28;20058;-71
2022/06/05 09:25:23;;;;;;;10.85;6.20;;;32.50;63.70;;;;;;4971057;28;20045;-68
2022/06/05 09:28:00;;;;;;;6.05;2.72;;;32.90;64.70;;;;;;4971423;28;20481;-72
2022/06/05 09:30:47;;;;;;;16.30;3.08;;;32.50;63.30;;;;;;4971654;28;20041;-69
2022/06/05 09:33:20;;;;;;;17.02;8.48;;;32.20;63.00;;;;;;4973631;28;20035;-70
2022/06/05 09:35:56;;;;;;;13.05;5.72;;;32.50;65.90;;;;;;4973049;28;20126;-70
2022/06/05 09:38:40;;;;;;;9.48;5.13;;;32.50;66.80;;;;;;4974911;28;20026;-70
2022/06/05 09:41:47;;;;;;;17.15;7.50;;;32.60;68.90;;;;;;4974376;28;20026;-71
2022/06/05 09:44:44;;;;;;;3.47;2.45;;;32.90;68.10;;;;;;4974132;28;20050;-71
2022/06/05 09:47:46;;;;;;;3.30;2.85;;;32.70;66.80;;;;;;4975158;28;20034;-71
2022/06/05 09:50:23;;;;;;;4.70;2.70;;;32.10;66.90;;;;;;4975446;28;20023;-70
2022/06/05 09:52:50;;;;;;;4.10;2.10;;;31.60;67.40;;;;;;4975304;28;20085;-71
2022/06/05 09:55:20;;;;;;;5.53;2.60;;;31.50;67.10;;;;;;4975436;28;20485;-71
2022/06/05 10:00:41;;;;;;;5.80;2.63;;;31.70;67.80;;;;;;4975763;28;20523;-71
2022/06/05 10:03:12;;;;;;;5.50;2.05;;;32.20;68.40;;;;;;4975381;28;20412;-71
2022/06/05 10:05:40;;;;;;;4.78;2.22;;;31.70;65.30;;;;;;4975602;28;20110;-71
2022/06/05 10:08:20;;;;;;;4.70;1.90;;;31.60;64.90;;;;;;4974967;28;20053;-71
2022/06/05 10:10:48;;;;;;;3.97;2.72;;;31.90;66.60;;;;;;4975016;28;20066;-71
2022/06/05 10:13:26;;;;;;;3.63;2.30;;;32.30;68.90;;;;;;4975239;28;20477;-72
2022/06/05 10:16:04;;;;;;;8.75;2.25;;;32.00;64.30;;;;;;4975079;28;20674;-69
2022/06/05 10:19:11;;;;;;;6.32;2.55;;;32.20;63.70;;;;;;4975411;28;20484;-72
2022/06/05 10:21:50;;;;;;;4.03;2.05;;;32.00;67.10;;;;;;4953166;28;20049;-72
2022/06/05 10:24:51;;;;;;;3.70;2.38;;;32.30;64.30;;;;;;4953645;28;20035;-71
2022/06/05 10:27:18;;;;;;;4.70;2.25;;;31.70;62.70;;;;;;4897706;29;20408;-72
2022/06/05 10:29:51;;;;;;;4.40;2.67;;;32.00;64.40;;;;;;4915018;29;20059;-70
2022/06/05 10:32:32;;;;;;;3.15;2.17;;;32.40;66.40;;;;;;4915241;29;20052;-71
2022/06/05 10:35:18;;;;;;;2.33;1.95;;;32.30;62.80;;;;;;4915353;29;20503;-72
2022/06/05 10:37:50;;;;;;;6.05;3.03;;;32.50;63.30;;;;;;4914858;29;20135;-71
2022/06/05 10:40:54;;;;;;;4.05;2.20;;;32.20;63.40;;;;;;4915366;29;20057;-71
2022/06/05 10:43:22;;;;;;;5.88;3.03;;;32.10;62.00;;;;;;4913794;29;20048;-71
2022/06/05 10:45:53;;;;;;;4.22;2.20;;;32.50;64.10;;;;;;4915000;29;20096;-71
2022/06/05 10:48:35;;;;;;;3.85;2.33;;;32.20;64.70;;;;;;4914981;29;20031;-70
2022/06/05 10:51:13;;;;;;;4.40;2.40;;;31.50;64.50;;;;;;4920422;29;20122;-71
2022/06/05 10:53:59;;;;;;;4.85;2.42;;;32.00;65.10;;;;;;4911593;29;20028;-68
2022/06/05 10:56:51;;;;;;;10.15;2.78;;;32.00;65.30;;;;;;4914464;29;20109;-69
2022/06/05 10:59:37;;;;;;;;;;;32.20;65.00;;;;;;4894264;29;20032;-69
2022/06/05 11:02:40;;;;;;;4.80;2.60;;;31.90;63.90;;;;;;4895066;29;20015;-70
2022/06/05 11:05:27;;;;;;;4.18;2.67;;;32.50;66.50;;;;;;4961658;28;20050;-67
2022/06/05 11:08:01;;;;;;;4.82;2.72;;;32.80;65.80;;;;;;4976274;28;20027;-69
2022/06/05 11:13:50;;;;;;;5.28;2.25;;;32.20;63.10;;;;;;4973406;28;20045;-71
2022/06/05 11:16:28;;;;;;;4.65;2.78;;;32.10;63.70;;;;;;4973673;28;20035;-70
2022/06/05 11:19:17;;;;;;;4.50;2.63;;;32.40;63.20;;;;;;4972840;28;20030;-68
2022/06/05 11:21:47;;;;;;;6.75;2.33;;;32.20;63.60;;;;;;4972728;28;20485;-70
2022/06/05 11:24:23;;;;;;;6.78;2.90;;;32.50;64.80;;;;;;4973423;28;20109;-70
2022/06/05 11:27:02;;;;;;;6.57;3.13;;;32.20;63.10;;;;;;4973502;28;20138;-70
2022/06/05 11:29:49;;;;;;;4.15;2.45;;;31.80;62.60;;;;;;4973088;28;20466;-68
2022/06/05 11:32:53;;;;;;;4.13;2.70;;;32.10;62.60;;;;;;4973851;28;20019;-65
2022/06/05 11:35:34;;;;;;;7.93;2.95;;;32.30;63.50;;;;;;4973010;28;20074;-70
2022/06/05 11:38:12;;;;;;;12.38;2.95;;;32.40;63.30;;;;;;4973679;28;20034;-66
2022/06/05 11:40:46;;;;;;;5.70;2.28;;;32.50;63.60;;;;;;4973569;28;20022;-65
2022/06/05 11:43:29;;;;;;;7.55;2.97;;;32.40;61.90;;;;;;4973377;28;20047;-71
2022/06/05 11:46:11;;;;;;;2.85;2.53;;;32.20;63.80;;;;;;4973356;28;20030;-69
2022/06/05 11:49:07;;;;;;;5.32;2.45;;;32.50;63.50;;;;;;4973310;28;20023;-70
2022/06/05 11:51:48;;;;;;;5.00;2.53;;;32.60;63.20;;;;;;4972591;28;20042;-66
2022/06/05 11:54:24;;;;;;;5.38;2.35;;;32.30;62.50;;;;;;4970652;28;20138;-70
2022/06/05 11:57:12;;;;;;;6.32;2.85;;;32.40;62.00;;;;;;4972882;28;20050;-70
2022/06/05 11:59:58;;;;;;;6.47;3.00;;;32.60;63.40;;;;;;4973124;28;20034;-71
2022/06/05 12:02:27;;;;;;;5.65;2.42;;;32.70;62.90;;;;;;4973195;28;20031;-71
2022/06/05 12:05:19;;;;;;;6.57;2.72;;;32.50;63.30;;;;;;4973587;28;20027;-68
2022/06/05 12:07:47;;;;;;;3.45;2.63;;;32.40;63.00;;;;;;4951643;28;20049;-65
2022/06/05 12:10:24;;;;;;;5.88;2.75;;;32.50;63.40;;;;;;4950732;29;20027;-70
2022/06/05 12:13:09;;;;;;;4.72;2.95;;;32.50;65.30;;;;;;4950724;28;20098;-68
2022/06/05 12:15:53;;;;;;;3.45;2.42;;;32.70;65.20;;;;;;4949484;29;20070;-68
2022/06/05 12:18:26;;;;;;;3.97;2.83;;;32.80;64.00;;;;;;4950173;29;20039;-70
2022/06/05 12:21:08;;;;;;;2.85;2.55;;;32.60;62.00;;;;;;4950365;29;20109;-70
2022/06/05 12:23:47;;;;;;;7.65;2.70;;;32.60;62.40;;;;;;4947677;29;20035;-70
2022/06/05 12:26:22;;;;;;;6.85;3.03;;;32.70;63.20;;;;;;4947012;29;20043;-69
2022/06/05 12:29:11;;;;;;;9.00;2.97;;;32.80;63.60;;;;;;4951291;28;21530;-65
2022/06/05 12:31:46;;;;;;;5.97;2.90;;;32.90;63.00;;;;;;4940242;29;20071;-68
2022/06/05 12:34:29;;;;;;;8.35;2.90;;;32.70;61.50;;;;;;4944503;29;20031;-65
2022/06/05 12:37:47;;;;;;;9.43;2.70;;;32.70;62.80;;;;;;4948884;29;20526;-66
2022/06/05 12:40:18;;;;;;;4.82;2.67;;;32.70;62.50;;;;;;4902677;29;20068;-70
2022/06/05 12:43:23;;;;;;;4.80;2.90;;;32.60;62.30;;;;;;4892487;29;20041;-63
2022/06/05 12:45:56;;;;;;;6.35;2.92;;;32.90;62.80;;;;;;4870318;29;20065;-66
2022/06/05 12:48:24;;;;;;;4.32;2.70;;;32.50;62.20;;;;;;4874949;29;20064;-67
2022/06/05 12:50:52;;;;;;;3.92;2.42;;;32.30;63.50;;;;;;4875103;29;20062;-64
2022/06/05 12:53:49;;;;;;;5.80;2.63;;;32.30;62.30;;;;;;4871345;29;20037;-68
2022/06/05 12:56:43;;;;;;;7.70;2.75;;;32.30;63.20;;;;;;4854093;29;20049;-67
2022/06/05 12:59:10;;;;;;;6.38;3.22;;;32.30;63.80;;;;;;4854989;29;20033;-70
2022/06/05 13:01:57;;;;;;;7.30;2.95;;;32.40;62.50;;;;;;4853524;29;20064;-68
2022/06/05 13:04:51;;;;;;;7.15;2.90;;;32.50;62.90;;;;;;4855166;29;20033;-67
2022/06/05 13:07:34;;;;;;;3.42;2.50;;;32.50;62.40;;;;;;4853005;29;20045;-69
2022/06/05 13:10:22;;;;;;;5.18;2.85;;;32.60;62.60;;;;;;4855122;29;20045;-71
2022/06/05 13:13:16;;;;;;;5.40;2.88;;;32.70;61.40;;;;;;4837201;29;20063;-69
2022/06/05 13:15:58;;;;;;;4.85;2.80;;;32.80;62.00;;;;;;4877715;29;20621;-71
2022/06/05 13:18:29;;;;;;;6.03;3.10;;;32.60;61.70;;;;;;4892565;29;20658;-68
2022/06/05 13:21:17;;;;;;;19.85;3.72;;;32.80;63.30;;;;;;4890864;29;20127;-70
2022/06/05 13:23:44;;;;;;;4.80;2.47;;;32.80;62.60;;;;;;4871978;29;20081;-65
2022/06/05 13:26:25;;;;;;;4.95;2.90;;;32.50;61.80;;;;;;4870757;29;20088;-71
2022/06/05 13:28:56;;;;;;;5.20;3.22;;;32.40;61.00;;;;;;4871102;29;20021;-65
2022/06/05 13:31:26;;;;;;;7.68;3.30;;;32.50;63.00;;;;;;4871974;29;20064;-70
2022/06/05 13:34:02;;;;;;;5.15;2.85;;;32.10;61.20;;;;;;4872112;29;20509;-70
2022/06/05 13:36:48;;;;;;;5.47;2.90;;;32.30;60.70;;;;;;4873549;29;20080;-69